sensor_id;sensor_type;location;lat;lon;timestamp;temperature;humidity
19365;DHT22;9818;48.382;10.850;2023-04-07T13:48:14;16.40;99.90
19365;DHT22;9818;48.382;10.850;2023-04-07T13:50:43;14.80;99.90
19365;DHT22;9818;48.382;10.850;2023-04-07T13:53:12;14.10;99.90
19365;DHT22;9818;48.382;10.850;2023-04-07T13:55:40;13.80;99.90
19365;DHT22;9818;48.382;10.850;2023-04-07T13:58:09;13.60;99.90
19365;DHT22;9818;48.382;10.850;2023-04-07T14:00:37;13.50;99.90
19365;DHT22;9818;48.382;10.850;2023-04-07T14:03:06;13.40;99.90
19365;DHT22;9818;48.382;10.850;2023-04-07T14:05:38;13.40;99.90
19365;DHT22;9818;48.382;10.850;2023-04-07T14:08:06;13.40;99.90
19365;DHT22;9818;48.382;10.850;2023-04-07T14:10:35;13.30;99.90
19365;DHT22;9818;48.382;10.850;2023-04-07T14:13:03;13.30;99.90
19365;DHT22;9818;48.382;10.850;2023-04-07T14:15:32;13.30;99.90
19365;DHT22;9818;48.382;10.850;2023-04-07T14:18:01;13.30;99.90
19365;DHT22;9818;48.382;10.850;2023-04-07T14:20:31;13.30;99.90
19365;DHT22;9818;48.382;10.850;2023-04-07T14:23:03;13.30;99.90
19365;DHT22;9818;48.382;10.850;2023-04-07T14:25:31;13.20;99.90
19365;DHT22;9818;48.382;10.850;2023-04-07T14:28:00;13.20;99.90
19365;DHT22;9818;48.382;10.850;2023-04-07T14:30:28;13.20;99.90
19365;DHT22;9818;48.382;10.850;2023-04-07T14:32:59;13.20;99.90
19365;DHT22;9818;48.382;10.850;2023-04-07T14:35:27;13.20;99.90
19365;DHT22;9818;48.382;10.850;2023-04-07T14:37:56;13.20;99.90
19365;DHT22;9818;48.382;10.850;2023-04-07T14:40:27;13.20;99.90
19365;DHT22;9818;48.382;10.850;2023-04-07T14:42:56;13.20;99.90
19365;DHT22;9818;48.382;10.850;2023-04-07T14:45:25;13.20;99.90
19365;DHT22;9818;48.382;10.850;2023-04-07T14:47:54;13.20;99.90
19365;DHT22;9818;48.382;10.850;2023-04-07T14:50:23;13.10;99.90
19365;DHT22;9818;48.382;10.850;2023-04-07T14:52:52;13.20;99.90
19365;DHT22;9818;48.382;10.850;2023-04-07T14:55:21;13.20;99.90
19365;DHT22;9818;48.382;10.850;2023-04-07T14:57:52;13.20;99.90
19365;DHT22;9818;48.382;10.850;2023-04-07T15:00:21;13.20;99.90
19365;DHT22;9818;48.382;10.850;2023-04-07T15:02:50;13.20;99.90
19365;DHT22;9818;48.382;10.850;2023-04-07T15:05:19;13.20;99.90
19365;DHT22;9818;48.382;10.850;2023-04-07T15:07:48;13.10;99.90
19365;DHT22;9818;48.382;10.850;2023-04-07T15:10:17;13.10;99.90
19365;DHT22;9818;48.382;10.850;2023-04-07T15:12:46;13.20;99.90
19365;DHT22;9818;48.382;10.850;2023-04-07T15:15:17;13.10;99.90
19365;DHT22;9818;48.382;10.850;2023-04-07T15:17:46;13.10;99.90
19365;DHT22;9818;48.382;10.850;2023-04-07T15:20:14;13.10;99.90
19365;DHT22;9818;48.382;10.850;2023-04-07T15:22:43;13.20;99.90
19365;DHT22;9818;48.382;10.850;2023-04-07T15:25:12;13.10;99.90
19365;DHT22;9818;48.382;10.850;2023-04-07T15:27:41;13.10;99.90
19365;DHT22;9818;48.382;10.850;2023-04-07T15:30:10;13.10;99.90
19365;DHT22;9818;48.382;10.850;2023-04-07T15:32:55;13.10;99.90
19365;DHT22;9818;48.382;10.850;2023-04-07T15:35:25;13.10;99.90
19365;DHT22;9818;48.382;10.850;2023-04-07T15:37:53;13.10;99.90
19365;DHT22;9818;48.382;10.850;2023-04-07T15:40:22;13.10;99.90
19365;DHT22;9818;48.382;10.850;2023-04-07T15:42:51;13.10;99.90
19365;DHT22;9818;48.382;10.850;2023-04-07T15:45:20;13.10;99.90
19365;DHT22;9818;48.382;10.850;2023-04-07T15:47:52;13.10;99.90
19365;DHT22;9818;48.382;10.850;2023-04-07T15:50:20;13.10;99.90
19365;DHT22;9818;48.382;10.850;2023-04-07T15:52:49;13.10;99.90
19365;DHT22;9818;48.382;10.850;2023-04-07T15:55:18;13.10;99.90
19365;DHT22;9818;48.382;10.850;2023-04-07T15:57:47;13.10;99.90
19365;DHT22;9818;48.382;10.850;2023-04-07T16:00:18;13.10;99.90
19365;DHT22;9818;48.382;10.850;2023-04-07T16:02:49;13.10;99.90
19365;DHT22;9818;48.382;10.850;2023-04-07T16:05:18;13.10;99.90
19365;DHT22;9818;48.382;10.850;2023-04-07T16:07:47;13.10;99.90
19365;DHT22;9818;48.382;10.850;2023-04-07T16:10:16;13.10;99.90
19365;DHT22;9818;48.382;10.850;2023-04-07T16:12:45;13.10;99.90
19365;DHT22;9818;48.382;10.850;2023-04-07T16:15:14;13.10;99.90
19365;DHT22;9818;48.382;10.850;2023-04-07T16:17:46;13.10;99.90
19365;DHT22;9818;48.382;10.850;2023-04-07T16:20:18;13.10;99.90
19365;DHT22;9818;48.382;10.850;2023-04-07T16:22:47;13.10;99.90
19365;DHT22;9818;48.382;10.850;2023-04-07T16:25:17;13.10;99.90
19365;DHT22;9818;48.382;10.850;2023-04-07T16:27:45;13.10;99.90
19365;DHT22;9818;48.382;10.850;2023-04-07T16:30:14;13.10;99.90
19365;DHT22;9818;48.382;10.850;2023-04-07T16:32:43;13.10;99.90
19365;DHT22;9818;48.382;10.850;2023-04-07T16:35:13;13.10;99.90
19365;DHT22;9818;48.382;10.850;2023-04-07T16:37:45;13.10;99.90
19365;DHT22;9818;48.382;10.850;2023-04-07T16:40:14;13.10;99.90
19365;DHT22;9818;48.382;10.850;2023-04-07T16:42:43;13.10;99.90
19365;DHT22;9818;48.382;10.850;2023-04-07T16:45:12;13.10;99.90
19365;DHT22;9818;48.382;10.850;2023-04-07T16:47:40;13.10;99.90
19365;DHT22;9818;48.382;10.850;2023-04-07T16:50:09;13.10;99.90
19365;DHT22;9818;48.382;10.850;2023-04-07T16:52:38;13.10;99.90
19365;DHT22;9818;48.382;10.850;2023-04-07T16:55:10;13.10;99.90
19365;DHT22;9818;48.382;10.850;2023-04-07T16:57:39;13.10;99.90
19365;DHT22;9818;48.382;10.850;2023-04-07T17:00:08;13.10;99.90
19365;DHT22;9818;48.382;10.850;2023-04-07T17:02:37;13.10;99.90
19365;DHT22;9818;48.382;10.850;2023-04-07T17:05:07;13.10;99.90
19365;DHT22;9818;48.382;10.850;2023-04-07T17:07:35;13.10;99.90
19365;DHT22;9818;48.382;10.850;2023-04-07T17:10:05;13.10;99.90
19365;DHT22;9818;48.382;10.850;2023-04-07T17:12:36;13.10;99.90
19365;DHT22;9818;48.382;10.850;2023-04-07T17:15:06;13.10;99.90
19365;DHT22;9818;48.382;10.850;2023-04-07T17:17:35;13.10;99.90
19365;DHT22;9818;48.382;10.850;2023-04-07T17:20:05;13.10;99.90
19365;DHT22;9818;48.382;10.850;2023-04-07T17:22:34;13.10;99.90
19365;DHT22;9818;48.382;10.850;2023-04-07T17:25:03;13.10;99.90
19365;DHT22;9818;48.382;10.850;2023-04-07T17:27:32;13.10;99.90
19365;DHT22;9818;48.382;10.850;2023-04-07T17:30:04;13.10;99.90
19365;DHT22;9818;48.382;10.850;2023-04-07T17:32:33;13.10;99.90
19365;DHT22;9818;48.382;10.850;2023-04-07T17:35:02;13.10;99.90
19365;DHT22;9818;48.382;10.850;2023-04-07T17:37:30;13.10;99.90
19365;DHT22;9818;48.382;10.850;2023-04-07T17:39:59;13.10;99.90
19365;DHT22;9818;48.382;10.850;2023-04-07T17:42:28;13.10;99.90
19365;DHT22;9818;48.382;10.850;2023-04-07T17:44:57;13.10;99.90
19365;DHT22;9818;48.382;10.850;2023-04-07T17:47:29;13.10;99.90
19365;DHT22;9818;48.382;10.850;2023-04-07T17:49:57;13.10;99.90
19365;DHT22;9818;48.382;10.850;2023-04-07T17:52:26;13.10;99.90
19365;DHT22;9818;48.382;10.850;2023-04-07T17:54:55;13.10;99.90
19365;DHT22;9818;48.382;10.850;2023-04-07T17:57:24;13.10;99.90
19365;DHT22;9818;48.382;10.850;2023-04-07T17:59:52;13.10;99.90
19365;DHT22;9818;48.382;10.850;2023-04-07T18:02:21;13.10;99.90
19365;DHT22;9818;48.382;10.850;2023-04-07T18:04:53;13.10;99.90
19365;DHT22;9818;48.382;10.850;2023-04-07T18:07:25;13.10;99.90
19365;DHT22;9818;48.382;10.850;2023-04-07T18:09:54;13.10;99.90
19365;DHT22;9818;48.382;10.850;2023-04-07T18:12:23;13.10;99.90
19365;DHT22;9818;48.382;10.850;2023-04-07T18:14:52;13.10;99.90
19365;DHT22;9818;48.382;10.850;2023-04-07T18:17:20;13.10;99.90
19365;DHT22;9818;48.382;10.850;2023-04-07T18:19:49;13.10;99.90
19365;DHT22;9818;48.382;10.850;2023-04-07T18:22:20;13.10;99.90
19365;DHT22;9818;48.382;10.850;2023-04-07T18:24:49;13.10;99.90
19365;DHT22;9818;48.382;10.850;2023-04-07T18:27:18;13.10;99.90
19365;DHT22;9818;48.382;10.850;2023-04-07T18:29:49;13.10;99.90
19365;DHT22;9818;48.382;10.850;2023-04-07T18:32:18;13.10;99.90
19365;DHT22;9818;48.382;10.850;2023-04-07T18:34:47;13.10;99.90
19365;DHT22;9818;48.382;10.850;2023-04-07T18:37:15;13.10;99.90
19365;DHT22;9818;48.382;10.850;2023-04-07T18:39:47;13.10;99.90
19365;DHT22;9818;48.382;10.850;2023-04-07T18:42:16;13.10;99.90
19365;DHT22;9818;48.382;10.850;2023-04-07T18:44:45;13.10;99.90
19365;DHT22;9818;48.382;10.850;2023-04-07T18:47:14;13.10;99.90
19365;DHT22;9818;48.382;10.850;2023-04-07T18:49:43;13.10;99.90
19365;DHT22;9818;48.382;10.850;2023-04-07T18:52:11;13.10;99.90
19365;DHT22;9818;48.382;10.850;2023-04-07T18:54:40;13.10;99.90
19365;DHT22;9818;48.382;10.850;2023-04-07T18:57:11;13.10;99.90
19365;DHT22;9818;48.382;10.850;2023-04-07T18:59:40;13.10;99.90
19365;DHT22;9818;48.382;10.850;2023-04-07T19:02:09;13.10;99.90
19365;DHT22;9818;48.382;10.850;2023-04-07T19:04:38;13.10;99.90
19365;DHT22;9818;48.382;10.850;2023-04-07T19:07:06;13.10;99.90
19365;DHT22;9818;48.382;10.850;2023-04-07T19:09:35;13.10;99.90
19365;DHT22;9818;48.382;10.850;2023-04-07T19:12:04;13.10;99.90
19365;DHT22;9818;48.382;10.850;2023-04-07T19:14:36;13.10;99.90
19365;DHT22;9818;48.382;10.850;2023-04-07T19:17:05;13.10;99.90
19365;DHT22;9818;48.382;10.850;2023-04-07T19:19:33;13.10;99.90
19365;DHT22;9818;48.382;10.850;2023-04-07T19:22:02;13.10;99.90
19365;DHT22;9818;48.382;10.850;2023-04-07T19:24:31;13.10;99.90
19365;DHT22;9818;48.382;10.850;2023-04-07T19:27:00;13.10;99.90
19365;DHT22;9818;48.382;10.850;2023-04-07T19:29:29;13.10;99.90
19365;DHT22;9818;48.382;10.850;2023-04-07T19:32:02;13.10;99.90
19365;DHT22;9818;48.382;10.850;2023-04-07T19:34:31;13.10;99.90
19365;DHT22;9818;48.382;10.850;2023-04-07T19:37:00;13.10;99.90
19365;DHT22;9818;48.382;10.850;2023-04-07T19:39:29;13.10;99.90
19365;DHT22;9818;48.382;10.850;2023-04-07T19:41:57;13.10;99.90
19365;DHT22;9818;48.382;10.850;2023-04-07T19:44:26;13.10;99.90
19365;DHT22;9818;48.382;10.850;2023-04-07T19:46:55;13.10;99.90
19365;DHT22;9818;48.382;10.850;2023-04-07T19:49:26;13.10;99.90
19365;DHT22;9818;48.382;10.850;2023-04-07T19:51:55;13.10;99.90
19365;DHT22;9818;48.382;10.850;2023-04-07T19:54:24;13.10;99.90
19365;DHT22;9818;48.382;10.850;2023-04-07T19:56:53;13.10;99.90
19365;DHT22;9818;48.382;10.850;2023-04-07T19:59:22;13.10;99.90
19365;DHT22;9818;48.382;10.850;2023-04-07T20:01:51;13.10;99.90
19365;DHT22;9818;48.382;10.850;2023-04-07T20:04:20;13.10;99.90
19365;DHT22;9818;48.382;10.850;2023-04-07T20:06:51;13.10;99.90
19365;DHT22;9818;48.382;10.850;2023-04-07T20:09:19;13.10;99.90
19365;DHT22;9818;48.382;10.850;2023-04-07T20:11:51;13.10;99.90
19365;DHT22;9818;48.382;10.850;2023-04-07T20:14:22;13.10;99.90
19365;DHT22;9818;48.382;10.850;2023-04-07T20:16:50;13.10;99.90
19365;DHT22;9818;48.382;10.850;2023-04-07T20:19:19;13.10;99.90
19365;DHT22;9818;48.382;10.850;2023-04-07T20:21:48;13.10;99.90
19365;DHT22;9818;48.382;10.850;2023-04-07T20:24:19;13.10;99.90
19365;DHT22;9818;48.382;10.850;2023-04-07T20:26:47;13.10;99.90
19365;DHT22;9818;48.382;10.850;2023-04-07T20:29:16;13.10;99.90
19365;DHT22;9818;48.382;10.850;2023-04-07T20:31:45;13.10;99.90
19365;DHT22;9818;48.382;10.850;2023-04-07T20:34:13;13.10;99.90
19365;DHT22;9818;48.382;10.850;2023-04-07T20:36:42;13.10;99.90
19365;DHT22;9818;48.382;10.850;2023-04-07T20:39:13;13.10;99.90
19365;DHT22;9818;48.382;10.850;2023-04-07T20:41:44;13.10;99.90
19365;DHT22;9818;48.382;10.850;2023-04-07T20:44:13;13.10;99.90
19365;DHT22;9818;48.382;10.850;2023-04-07T20:46:43;13.10;99.90
19365;DHT22;9818;48.382;10.850;2023-04-07T20:49:12;13.10;99.90
19365;DHT22;9818;48.382;10.850;2023-04-07T20:51:40;13.10;99.90
19365;DHT22;9818;48.382;10.850;2023-04-07T20:54:09;13.10;99.90
19365;DHT22;9818;48.382;10.850;2023-04-07T20:56:38;13.10;99.90
19365;DHT22;9818;48.382;10.850;2023-04-07T20:59:10;13.10;99.90
19365;DHT22;9818;48.382;10.850;2023-04-07T21:01:38;13.10;99.90
19365;DHT22;9818;48.382;10.850;2023-04-07T21:04:08;13.10;99.90
19365;DHT22;9818;48.382;10.850;2023-04-07T21:06:37;13.10;99.90
19365;DHT22;9818;48.382;10.850;2023-04-07T21:09:06;13.10;99.90
19365;DHT22;9818;48.382;10.850;2023-04-07T21:11:36;13.10;99.90
19365;DHT22;9818;48.382;10.850;2023-04-07T21:14:04;13.10;99.90
19365;DHT22;9818;48.382;10.850;2023-04-07T21:16:35;13.10;99.90
19365;DHT22;9818;48.382;10.850;2023-04-07T21:19:04;13.10;99.90
19365;DHT22;9818;48.382;10.850;2023-04-07T21:21:33;13.10;99.90
19365;DHT22;9818;48.382;10.850;2023-04-07T21:24:01;13.10;99.90
19365;DHT22;9818;48.382;10.850;2023-04-07T21:26:30;13.10;99.90
19365;DHT22;9818;48.382;10.850;2023-04-07T21:28:59;13.10;99.90
19365;DHT22;9818;48.382;10.850;2023-04-07T21:31:27;13.10;99.90
19365;DHT22;9818;48.382;10.850;2023-04-07T21:33:59;13.10;99.90
19365;DHT22;9818;48.382;10.850;2023-04-07T21:36:28;13.10;99.90
19365;DHT22;9818;48.382;10.850;2023-04-07T21:38:57;13.10;99.90
19365;DHT22;9818;48.382;10.850;2023-04-07T21:41:26;13.10;99.90
19365;DHT22;9818;48.382;10.850;2023-04-07T21:43:54;13.10;99.90
19365;DHT22;9818;48.382;10.850;2023-04-07T21:46:23;13.10;99.90
19365;DHT22;9818;48.382;10.850;2023-04-07T21:48:52;13.10;99.90
19365;DHT22;9818;48.382;10.850;2023-04-07T21:51:23;13.10;99.90
19365;DHT22;9818;48.382;10.850;2023-04-07T21:53:52;13.10;99.90
19365;DHT22;9818;48.382;10.850;2023-04-07T21:56:20;13.10;99.90
19365;DHT22;9818;48.382;10.850;2023-04-07T21:58:49;13.10;99.90
19365;DHT22;9818;48.382;10.850;2023-04-07T22:01:18;13.10;99.90
19365;DHT22;9818;48.382;10.850;2023-04-07T22:03:46;13.10;99.90
19365;DHT22;9818;48.382;10.850;2023-04-07T22:06:15;13.10;99.90
19365;DHT22;9818;48.382;10.850;2023-04-07T22:08:46;13.10;99.90
19365;DHT22;9818;48.382;10.850;2023-04-07T22:11:15;13.10;99.90
19365;DHT22;9818;48.382;10.850;2023-04-07T22:13:44;13.10;99.90
19365;DHT22;9818;48.382;10.850;2023-04-07T22:16:12;13.10;99.90
19365;DHT22;9818;48.382;10.850;2023-04-07T22:18:41;13.10;99.90
19365;DHT22;9818;48.382;10.850;2023-04-07T22:21:10;13.10;99.90
19365;DHT22;9818;48.382;10.850;2023-04-07T22:23:38;13.10;99.90
19365;DHT22;9818;48.382;10.850;2023-04-07T22:26:10;13.10;99.90
19365;DHT22;9818;48.382;10.850;2023-04-07T22:28:38;13.10;99.90
19365;DHT22;9818;48.382;10.850;2023-04-07T22:31:07;13.10;99.90
19365;DHT22;9818;48.382;10.850;2023-04-07T22:33:36;13.10;99.90
19365;DHT22;9818;48.382;10.850;2023-04-07T22:36:04;13.10;99.90
19365;DHT22;9818;48.382;10.850;2023-04-07T22:38:33;13.10;99.90
19365;DHT22;9818;48.382;10.850;2023-04-07T22:41:02;13.10;99.90
19365;DHT22;9818;48.382;10.850;2023-04-07T22:43:33;13.10;99.90
19365;DHT22;9818;48.382;10.850;2023-04-07T22:46:02;13.10;99.90
19365;DHT22;9818;48.382;10.850;2023-04-07T22:48:30;13.10;99.90
19365;DHT22;9818;48.382;10.850;2023-04-07T22:50:59;13.10;99.90
19365;DHT22;9818;48.382;10.850;2023-04-07T22:53:28;13.10;99.90
19365;DHT22;9818;48.382;10.850;2023-04-07T22:55:56;13.10;99.90
19365;DHT22;9818;48.382;10.850;2023-04-07T22:58:25;13.10;99.90
19365;DHT22;9818;48.382;10.850;2023-04-07T23:00:57;13.10;99.90
19365;DHT22;9818;48.382;10.850;2023-04-07T23:03:26;13.10;99.90
19365;DHT22;9818;48.382;10.850;2023-04-07T23:05:54;13.10;99.90
19365;DHT22;9818;48.382;10.850;2023-04-07T23:08:24;13.10;99.90
19365;DHT22;9818;48.382;10.850;2023-04-07T23:10:52;13.10;99.90
19365;DHT22;9818;48.382;10.850;2023-04-07T23:13:21;13.10;99.90
19365;DHT22;9818;48.382;10.850;2023-04-07T23:15:50;13.10;99.90
19365;DHT22;9818;48.382;10.850;2023-04-07T23:18:21;13.10;99.90
19365;DHT22;9818;48.382;10.850;2023-04-07T23:20:50;13.10;99.90
19365;DHT22;9818;48.382;10.850;2023-04-07T23:23:19;13.10;99.90
19365;DHT22;9818;48.382;10.850;2023-04-07T23:25:47;13.10;99.90
19365;DHT22;9818;48.382;10.850;2023-04-07T23:28:16;13.10;99.90
19365;DHT22;9818;48.382;10.850;2023-04-07T23:30:45;13.10;99.90
19365;DHT22;9818;48.382;10.850;2023-04-07T23:33:13;13.10;99.90
19365;DHT22;9818;48.382;10.850;2023-04-07T23:35:45;13.10;99.90
19365;DHT22;9818;48.382;10.850;2023-04-07T23:38:14;13.10;99.90
19365;DHT22;9818;48.382;10.850;2023-04-07T23:40:42;13.10;99.90
19365;DHT22;9818;48.382;10.850;2023-04-07T23:43:11;13.10;99.90
19365;DHT22;9818;48.382;10.850;2023-04-07T23:45:40;13.10;99.90
19365;DHT22;9818;48.382;10.850;2023-04-07T23:48:08;13.10;99.90
19365;DHT22;9818;48.382;10.850;2023-04-07T23:50:37;13.10;99.90
19365;DHT22;9818;48.382;10.850;2023-04-07T23:53:08;13.10;99.90
19365;DHT22;9818;48.382;10.850;2023-04-07T23:55:37;13.10;99.90
19365;DHT22;9818;48.382;10.850;2023-04-07T23:58:06;13.10;99.90
